createdAt,value
2023-02-08T00:00:50.968Z,66.63
2023-02-08T00:01:50.959Z,66.56
2023-02-08T00:02:50.994Z,66.53
2023-02-08T00:03:50.980Z,66.31
2023-02-08T00:04:50.952Z,66.87
2023-02-08T00:05:50.923Z,67.29
2023-02-08T00:06:50.912Z,66.94
2023-02-08T00:07:50.902Z,67.25
2023-02-08T00:08:50.916Z,67.70
2023-02-08T00:09:50.887Z,66.97
2023-02-08T00:10:50.874Z,66.94
2023-02-08T00:11:50.851Z,66.74
2023-02-08T00:12:50.850Z,66.74
2023-02-08T00:13:50.840Z,67.49
2023-02-08T00:14:50.860Z,67.36
2023-02-08T00:15:50.865Z,67.18
2023-02-08T00:16:50.800Z,66.97
2023-02-08T00:17:50.811Z,66.97
2023-02-08T00:18:50.832Z,67.15
2023-02-08T00:19:50.794Z,67.49
2023-02-08T00:20:50.762Z,66.53
2023-02-08T00:21:50.759Z,66.45
2023-02-08T00:22:52.518Z,66.56
2023-02-08T00:23:50.726Z,67.18
2023-02-08T00:24:50.734Z,66.77
2023-02-08T00:25:50.711Z,67.18
2023-02-08T00:26:50.692Z,66.56
2023-02-08T00:27:50.731Z,67.91
2023-02-08T00:28:50.672Z,68.01
2023-02-08T00:29:50.675Z,67.18
2023-02-08T00:30:50.704Z,67.49
2023-02-08T00:31:53.265Z,67.70
2023-02-08T00:32:50.632Z,66.97
2023-02-08T00:33:50.614Z,67.60
2023-02-08T00:34:50.617Z,66.87
2023-02-08T00:35:50.633Z,66.80
2023-02-08T00:36:50.585Z,66.66
2023-02-08T00:37:50.590Z,66.77
2023-02-08T00:38:50.573Z,66.66
2023-02-08T00:39:50.570Z,66.87
2023-02-08T00:40:50.539Z,67.18
2023-02-08T00:41:50.558Z,68.12
2023-02-08T00:42:50.522Z,68.12
2023-02-08T00:43:50.508Z,67.39
2023-02-08T00:44:50.525Z,67.42
2023-02-08T00:46:05.208Z,67.29
2023-02-08T00:46:50.514Z,68.25
2023-02-08T00:47:50.474Z,67.91
2023-02-08T00:48:50.458Z,67.80
2023-02-08T00:49:50.444Z,68.01
2023-02-08T00:50:50.451Z,68.22
2023-02-08T00:51:50.461Z,68.01
2023-02-08T00:52:50.424Z,68.04
2023-02-08T00:53:50.402Z,67.94
2023-02-08T00:54:50.399Z,68.04
2023-02-08T00:55:50.383Z,68.04
2023-02-08T00:56:50.382Z,67.83
2023-02-08T00:57:50.384Z,67.52
2023-02-08T00:58:50.353Z,67.00
2023-02-08T00:59:50.340Z,67.11
2023-02-08T01:00:50.398Z,67.42
2023-02-08T01:01:50.338Z,68.15
2023-02-08T01:02:50.327Z,67.94
2023-02-08T01:03:50.303Z,68.15
2023-02-08T01:04:50.289Z,68.25
2023-02-08T01:05:50.275Z,68.28
2023-02-08T01:06:50.287Z,67.97
2023-02-08T01:07:50.256Z,67.94
2023-02-08T01:08:50.259Z,68.18
2023-02-08T01:09:50.247Z,68.07
2023-02-08T01:10:50.234Z,67.97
2023-02-08T01:11:50.236Z,67.97
2023-02-08T01:12:50.210Z,67.45
2023-02-08T01:13:50.276Z,67.55
2023-02-08T01:14:50.188Z,68.18
2023-02-08T01:15:50.169Z,68.18
2023-02-08T01:16:50.161Z,68.28
2023-02-08T01:17:50.143Z,67.55
2023-02-08T01:18:50.162Z,67.35
2023-02-08T01:19:50.127Z,67.24
2023-02-08T01:20:50.121Z,67.66
2023-02-08T01:21:50.114Z,67.45
2023-02-08T01:22:50.115Z,66.93
2023-02-08T01:23:50.085Z,66.96
2023-02-08T01:24:50.087Z,67.35
2023-02-08T01:25:50.060Z,67.14
2023-02-08T01:26:50.056Z,66.72
2023-02-08T01:27:50.093Z,68.07
2023-02-08T01:28:50.032Z,67.55
2023-02-08T01:29:50.037Z,66.93
2023-02-08T01:30:50.188Z,67.76
2023-02-08T01:31:50.107Z,67.14
2023-02-08T01:32:49.991Z,67.35
2023-02-08T01:33:49.978Z,66.93
2023-02-08T01:34:50.083Z,67.03
2023-02-08T01:35:49.959Z,66.93
2023-02-08T01:36:49.952Z,67.76
2023-02-08T01:37:49.932Z,67.66
2023-02-08T01:38:49.944Z,67.97
2023-02-08T01:39:49.948Z,68.18
2023-02-08T01:40:49.897Z,67.97
2023-02-08T01:41:49.890Z,68.18
2023-02-08T01:42:49.885Z,68.07
2023-02-08T01:43:49.876Z,68.18
2023-02-08T01:44:49.902Z,67.97
2023-02-08T01:45:49.870Z,68.18
2023-02-08T01:46:49.842Z,68.18
2023-02-08T01:47:49.856Z,67.97
2023-02-08T01:48:49.822Z,67.73
2023-02-08T01:49:49.813Z,67.97
2023-02-08T01:50:49.809Z,67.83
2023-02-08T01:51:49.806Z,67.83
2023-02-08T01:52:49.800Z,68.04
2023-02-08T01:53:49.768Z,67.86
2023-02-08T01:54:49.794Z,67.97
2023-02-08T01:55:49.755Z,69.81
2023-02-08T01:56:49.757Z,70.36
2023-02-08T01:57:49.727Z,70.43
2023-02-08T01:58:49.708Z,70.54
2023-02-08T01:59:49.724Z,70.23
2023-02-08T02:00:49.749Z,70.23
2023-02-08T02:01:49.704Z,70.12
2023-02-08T02:02:49.689Z,70.02
2023-02-08T02:03:49.664Z,68.98
2023-02-08T02:04:49.654Z,69.60
2023-02-08T02:05:49.738Z,69.40
2023-02-08T02:06:49.635Z,69.29
2023-02-08T02:07:49.627Z,68.77
2023-02-08T02:08:49.620Z,68.56
2023-02-08T02:09:49.609Z,68.56
2023-02-08T02:10:49.615Z,68.77
2023-02-08T02:11:49.582Z,68.88
2023-02-08T02:12:49.583Z,68.28
2023-02-08T02:13:49.562Z,68.25
2023-02-08T02:14:49.592Z,68.56
2023-02-08T02:15:49.536Z,68.56
2023-02-08T02:16:49.582Z,68.04
2023-02-08T02:17:49.538Z,68.46
2023-02-08T02:18:49.502Z,68.46
2023-02-08T02:19:49.501Z,68.35
2023-02-08T02:20:49.493Z,68.88
2023-02-08T02:21:49.467Z,68.28
2023-02-08T02:22:49.588Z,67.97
2023-02-08T02:23:49.470Z,67.83
2023-02-08T02:24:49.434Z,67.86
2023-02-08T02:25:49.478Z,67.76
2023-02-08T02:26:49.450Z,68.28
2023-02-08T02:27:49.459Z,67.86
2023-02-08T02:28:49.426Z,67.76
2023-02-08T02:29:49.404Z,67.86
2023-02-08T02:30:49.432Z,67.97
2023-02-08T02:31:49.366Z,67.97
2023-02-08T02:32:49.377Z,68.28
2023-02-08T02:33:49.351Z,68.18
2023-02-08T02:34:49.350Z,67.97
2023-02-08T02:35:49.359Z,68.18
2023-02-08T02:36:49.323Z,68.18
2023-02-08T02:37:49.305Z,68.18
2023-02-08T02:38:49.311Z,68.21
2023-02-08T02:39:49.294Z,67.66
2023-02-08T02:40:49.270Z,68.18
2023-02-08T02:41:49.272Z,68.00
2023-02-08T02:42:49.271Z,68.21
2023-02-08T02:43:49.246Z,68.32
2023-02-08T02:44:49.246Z,68.10
2023-02-08T02:45:49.272Z,68.21
2023-02-08T02:46:49.212Z,68.10
2023-02-08T02:47:49.192Z,68.10
2023-02-08T02:48:49.187Z,68.32
2023-02-08T02:49:49.215Z,67.90
2023-02-08T02:50:49.196Z,68.00
2023-02-08T02:51:49.152Z,68.03
2023-02-08T02:52:49.151Z,68.10
2023-02-08T02:53:49.172Z,68.21
2023-02-08T02:54:49.123Z,67.72
2023-02-08T02:55:49.113Z,68.03
2023-02-08T02:56:49.153Z,68.24
2023-02-08T02:57:49.112Z,68.13
2023-02-08T02:58:49.107Z,68.03
2023-02-08T02:59:49.105Z,68.35
2023-02-08T03:00:49.101Z,68.24
2023-02-08T03:01:49.054Z,68.45
2023-02-08T03:02:49.049Z,68.03
2023-02-08T03:03:49.040Z,67.85
2023-02-08T03:04:49.045Z,68.35
2023-02-08T03:05:49.014Z,67.44
2023-02-08T03:06:49.015Z,68.10
2023-02-08T03:07:49.024Z,68.20
2023-02-08T03:08:48.990Z,68.10
2023-02-08T03:09:48.972Z,67.99
2023-02-08T03:10:48.992Z,68.20
2023-02-08T03:11:48.955Z,68.41
2023-02-08T03:12:48.942Z,68.30
2023-02-08T03:13:48.942Z,68.20
2023-02-08T03:14:48.938Z,68.30
2023-02-08T03:15:48.904Z,67.88
2023-02-08T03:16:49.006Z,68.23
2023-02-08T03:17:48.878Z,67.92
2023-02-08T03:18:48.886Z,68.30
2023-02-08T03:19:48.863Z,68.02
2023-02-08T03:20:48.859Z,68.23
2023-02-08T03:21:48.847Z,68.30
2023-02-08T03:22:48.847Z,67.99
2023-02-08T03:23:48.829Z,68.30
2023-02-08T03:24:48.824Z,67.99
2023-02-08T03:25:48.811Z,68.10
2023-02-08T03:26:48.786Z,67.68
2023-02-08T03:27:48.879Z,67.16
2023-02-08T03:28:48.770Z,67.16
2023-02-08T03:29:48.761Z,67.05
2023-02-08T03:30:48.842Z,67.88
2023-02-08T03:31:48.908Z,68.10
2023-02-08T03:32:48.724Z,68.20
2023-02-08T03:33:48.760Z,68.30
2023-02-08T03:34:48.733Z,67.88
2023-02-08T03:35:48.695Z,67.68
2023-02-08T03:36:48.682Z,68.41
2023-02-08T03:37:48.684Z,67.57
2023-02-08T03:38:48.666Z,67.68
2023-02-08T03:39:48.727Z,67.57
2023-02-08T03:40:48.645Z,67.36
2023-02-08T03:41:48.637Z,67.88
2023-02-08T03:42:48.633Z,67.57
2023-02-08T03:43:48.628Z,67.26
2023-02-08T03:44:48.611Z,67.36
2023-02-08T03:45:48.639Z,67.26
2023-02-08T03:46:48.598Z,67.36
2023-02-08T03:47:48.607Z,67.36
2023-02-08T03:48:48.555Z,67.36
2023-02-08T03:49:48.604Z,67.57
2023-02-08T03:50:48.546Z,67.36
2023-02-08T03:51:48.530Z,67.36
2023-02-08T03:52:48.544Z,67.57
2023-02-08T03:53:48.542Z,68.10
2023-02-08T03:54:48.498Z,68.10
2023-02-08T03:55:48.486Z,67.36
2023-02-08T03:56:48.475Z,67.36
2023-02-08T03:57:48.461Z,68.41
2023-02-08T03:58:48.471Z,67.68
2023-02-08T03:59:48.449Z,68.23
2023-02-08T04:00:48.432Z,68.23
2023-02-08T04:01:48.417Z,68.23
2023-02-08T04:02:48.475Z,68.33
2023-02-08T04:03:48.428Z,68.20
2023-02-08T04:04:48.389Z,68.30
2023-02-08T04:05:48.395Z,68.23
2023-02-08T04:06:48.365Z,68.41
2023-02-08T04:07:48.383Z,68.44
2023-02-08T04:08:48.341Z,67.50
2023-02-08T04:09:48.371Z,68.33
2023-02-08T04:10:48.320Z,68.41
2023-02-08T04:11:48.322Z,68.30
2023-02-08T04:12:48.296Z,68.20
2023-02-08T04:13:48.316Z,68.20
2023-02-08T04:14:48.287Z,68.20
2023-02-08T04:15:48.341Z,68.30
2023-02-08T04:16:48.259Z,67.99
2023-02-08T04:17:48.248Z,67.99
2023-02-08T04:18:48.265Z,68.10
2023-02-08T04:19:48.237Z,68.10
2023-02-08T04:20:48.251Z,68.20
2023-02-08T04:21:48.209Z,68.20
2023-02-08T04:22:48.191Z,68.20
2023-02-08T04:23:48.183Z,68.20
2023-02-08T04:24:48.170Z,68.20
2023-02-08T04:25:48.167Z,68.20
2023-02-08T04:26:48.195Z,68.10
2023-02-08T04:27:48.192Z,67.99
2023-02-08T04:28:48.130Z,68.20
2023-02-08T04:29:48.120Z,67.99
2023-02-08T04:30:48.177Z,68.10
2023-02-08T04:31:48.202Z,68.10
2023-02-08T04:32:48.091Z,67.88
2023-02-08T04:33:48.087Z,67.88
2023-02-08T04:34:48.085Z,67.88
2023-02-08T04:35:48.073Z,68.10
2023-02-08T04:36:48.078Z,68.20
2023-02-08T04:37:48.037Z,68.51
2023-02-08T04:38:48.043Z,68.41
2023-02-08T04:39:48.026Z,68.30
2023-02-08T04:40:48.033Z,68.10
2023-02-08T04:41:48.026Z,68.10
2023-02-08T04:42:48.730Z,67.99
2023-02-08T04:43:47.984Z,68.20
2023-02-08T04:44:47.967Z,68.44
2023-02-08T04:45:47.992Z,68.33
2023-02-08T04:46:47.946Z,68.23
2023-02-08T04:47:47.948Z,68.02
2023-02-08T04:48:47.933Z,68.30
2023-02-08T04:49:47.955Z,68.30
2023-02-08T04:50:47.931Z,68.02
2023-02-08T04:51:47.897Z,68.13
2023-02-08T04:52:47.948Z,68.13
2023-02-08T04:53:47.875Z,68.13
2023-02-08T04:54:47.866Z,68.02
2023-02-08T04:55:47.859Z,68.23
2023-02-08T04:56:47.847Z,68.13
2023-02-08T04:57:47.854Z,68.23
2023-02-08T04:58:47.824Z,68.13
2023-02-08T04:59:47.817Z,68.23
2023-02-08T05:00:47.802Z,68.44
2023-02-08T05:01:47.878Z,68.44
2023-02-08T05:02:47.813Z,67.81
2023-02-08T05:03:47.775Z,67.50
2023-02-08T05:04:47.821Z,67.40
2023-02-08T05:05:47.742Z,67.16
2023-02-08T05:06:48.544Z,67.08
2023-02-08T05:07:47.752Z,67.81
2023-02-08T05:08:56.779Z,67.92
2023-02-08T05:09:47.703Z,67.40
2023-02-08T05:10:47.700Z,68.41
2023-02-08T05:11:47.687Z,68.44
2023-02-08T05:12:47.670Z,68.33
2023-02-08T05:13:47.690Z,68.20
2023-02-08T05:14:47.648Z,68.44
2023-02-08T05:15:47.686Z,67.29
2023-02-08T05:16:47.631Z,67.29
2023-02-08T05:17:47.630Z,67.40
2023-02-08T05:18:47.648Z,66.98
2023-02-08T05:19:47.602Z,67.81
2023-02-08T05:20:47.583Z,67.40
2023-02-08T05:21:47.578Z,67.92
2023-02-08T05:22:47.585Z,67.05
2023-02-08T05:23:47.594Z,67.08
2023-02-08T05:24:47.555Z,67.16
2023-02-08T05:25:47.534Z,67.05
2023-02-08T05:26:47.521Z,67.19
2023-02-08T05:27:47.656Z,67.16
2023-02-08T05:28:47.500Z,67.81
2023-02-08T05:29:47.515Z,67.81
2023-02-08T05:30:47.508Z,67.19
2023-02-08T05:31:47.565Z,67.29
2023-02-08T05:32:47.465Z,67.19
2023-02-08T05:33:47.446Z,67.40
2023-02-08T05:34:47.474Z,67.40
2023-02-08T05:35:47.440Z,67.50
2023-02-08T05:36:47.421Z,67.40
2023-02-08T05:37:47.411Z,68.23
2023-02-08T05:38:47.413Z,67.60
2023-02-08T05:39:47.403Z,68.23
2023-02-08T05:40:47.371Z,67.71
2023-02-08T05:41:47.365Z,68.54
2023-02-08T05:42:47.356Z,67.71
2023-02-08T05:43:47.339Z,67.81
2023-02-08T05:44:47.382Z,68.33
2023-02-08T05:45:47.331Z,67.71
2023-02-08T05:46:47.321Z,68.26
2023-02-08T05:47:47.293Z,68.26
2023-02-08T05:48:47.294Z,68.05
2023-02-08T05:49:47.313Z,68.47
2023-02-08T05:50:47.304Z,68.26
2023-02-08T05:51:47.295Z,68.16
2023-02-08T05:52:47.248Z,67.95
2023-02-08T05:53:47.230Z,68.16
2023-02-08T05:54:47.249Z,68.16
2023-02-08T05:55:47.277Z,68.26
2023-02-08T05:56:47.207Z,68.37
2023-02-08T05:57:47.191Z,68.16
2023-02-08T05:58:47.177Z,68.19
2023-02-08T05:59:47.168Z,68.19
2023-02-08T06:00:47.207Z,68.08
2023-02-08T06:01:47.196Z,67.49
2023-02-08T06:02:47.147Z,68.63
2023-02-08T06:03:47.165Z,69.19
2023-02-08T06:04:47.123Z,69.09
2023-02-08T06:05:47.119Z,69.40
2023-02-08T06:06:47.100Z,69.47
2023-02-08T06:07:47.114Z,69.06
2023-02-08T06:08:47.081Z,68.95
2023-02-08T06:09:48.504Z,69.02
2023-02-08T06:10:47.067Z,68.50
2023-02-08T06:11:47.071Z,68.29
2023-02-08T06:12:47.037Z,68.19
2023-02-08T06:13:47.054Z,68.19
2023-02-08T06:14:47.011Z,68.08
2023-02-08T06:15:47.031Z,68.32
2023-02-08T06:16:47.076Z,68.43
2023-02-08T06:17:46.984Z,68.32
2023-02-08T06:18:46.972Z,68.43
2023-02-08T06:19:46.956Z,68.43
2023-02-08T06:20:46.950Z,68.22
2023-02-08T06:21:46.955Z,68.85
2023-02-08T06:22:46.964Z,68.85
2023-02-08T06:23:46.922Z,68.95
2023-02-08T06:24:46.910Z,68.53
2023-02-08T06:25:46.893Z,68.32
2023-02-08T06:26:46.930Z,68.32
2023-02-08T06:27:46.905Z,68.32
2023-02-08T06:28:46.868Z,68.32
2023-02-08T06:29:46.863Z,68.22
2023-02-08T06:30:46.844Z,68.43
2023-02-08T06:31:46.886Z,68.12
2023-02-08T06:32:46.870Z,68.32
2023-02-08T06:33:46.819Z,68.43
2023-02-08T06:34:46.804Z,68.40
2023-02-08T06:35:46.798Z,68.32
2023-02-08T06:36:46.782Z,68.22
2023-02-08T06:37:46.805Z,68.22
2023-02-08T06:38:46.765Z,68.01
2023-02-08T06:39:46.768Z,68.22
2023-02-08T06:40:46.742Z,67.98
2023-02-08T06:41:46.732Z,68.08
2023-02-08T06:42:46.733Z,68.08
2023-02-08T06:43:46.746Z,68.12
2023-02-08T06:44:54.767Z,68.19
2023-02-08T06:45:47.745Z,68.22
2023-02-08T06:46:46.674Z,68.53
2023-02-08T06:47:46.666Z,68.32
2023-02-08T06:48:46.652Z,68.43
2023-02-08T06:49:46.684Z,68.12
2023-02-08T06:50:46.638Z,72.78
2023-02-08T06:51:46.618Z,77.03
2023-02-08T06:52:46.611Z,74.70
2023-02-08T06:53:46.604Z,73.34
2023-02-08T06:54:46.606Z,72.30
2023-02-08T06:55:46.600Z,70.11
2023-02-08T06:56:46.580Z,68.13
2023-02-08T06:57:46.573Z,67.29
2023-02-08T06:58:46.569Z,66.88
2023-02-08T06:59:46.552Z,67.08
2023-02-08T07:00:46.527Z,67.50
2023-02-08T07:01:46.521Z,67.40
2023-02-08T07:02:46.518Z,66.98
2023-02-08T07:03:46.518Z,67.60
2023-02-08T07:04:46.518Z,67.60
2023-02-08T07:06:02.481Z,67.50
2023-02-08T07:06:47.467Z,67.53
2023-02-08T07:07:46.457Z,67.53
2023-02-08T07:08:46.449Z,67.53
2023-02-08T07:09:46.443Z,67.95
2023-02-08T07:10:46.633Z,68.08
2023-02-08T07:11:46.422Z,67.46
2023-02-08T07:12:46.417Z,67.98
2023-02-08T07:13:46.404Z,67.77
2023-02-08T07:14:46.410Z,67.95
2023-02-08T07:15:46.419Z,68.29
2023-02-08T07:16:46.505Z,67.85
2023-02-08T07:17:46.350Z,67.32
2023-02-08T07:18:46.351Z,67.25
2023-02-08T07:19:46.346Z,67.98
2023-02-08T07:20:46.349Z,67.04
2023-02-08T07:21:46.344Z,67.25
2023-02-08T07:22:46.299Z,67.14
2023-02-08T07:23:46.283Z,67.80
2023-02-08T07:24:46.292Z,67.77
2023-02-08T07:25:46.295Z,68.22
2023-02-08T07:26:46.269Z,67.49
2023-02-08T07:27:46.283Z,68.43
2023-02-08T07:28:46.249Z,68.53
2023-02-08T07:29:46.261Z,68.32
2023-02-08T07:30:46.280Z,68.22
2023-02-08T07:31:46.318Z,67.69
2023-02-08T07:32:46.198Z,67.49
2023-02-08T07:33:46.226Z,67.83
2023-02-08T07:34:46.215Z,67.52
2023-02-08T07:35:46.205Z,68.57
2023-02-08T07:36:46.161Z,68.35
2023-02-08T07:37:46.153Z,68.57
2023-02-08T07:38:46.134Z,68.15
2023-02-08T07:39:46.145Z,68.46
2023-02-08T07:40:46.126Z,68.43
2023-02-08T07:41:46.120Z,68.22
2023-02-08T07:42:46.100Z,68.43
2023-02-08T07:43:46.125Z,68.19
2023-02-08T07:44:46.095Z,68.29
2023-02-08T07:45:46.116Z,67.04
2023-02-08T07:46:46.067Z,68.37
2023-02-08T07:47:46.062Z,67.32
2023-02-08T07:48:46.052Z,67.11
2023-02-08T07:49:46.057Z,66.88
2023-02-08T07:50:46.216Z,66.88
2023-02-08T07:51:46.032Z,66.56
2023-02-08T07:52:46.014Z,66.88
2023-02-08T07:53:45.990Z,67.08
2023-02-08T07:54:46.011Z,66.32
2023-02-08T07:55:46.026Z,66.42
2023-02-08T07:56:45.980Z,65.59
2023-02-08T07:57:45.958Z,65.80
2023-02-08T07:58:46.059Z,65.70
2023-02-08T07:59:45.924Z,66.11
2023-02-08T08:00:45.943Z,65.67
2023-02-08T08:01:45.948Z,65.67
2023-02-08T08:02:45.919Z,65.88
2023-02-08T08:03:45.952Z,65.33
2023-02-08T08:04:45.874Z,65.64
2023-02-08T08:05:45.895Z,65.11
2023-02-08T08:06:45.921Z,64.18
2023-02-08T08:07:45.857Z,64.28
2023-02-08T08:08:45.864Z,64.83
2023-02-08T08:09:45.828Z,65.22
2023-02-08T08:10:45.851Z,64.70
2023-02-08T08:11:45.815Z,64.59
2023-02-08T08:12:45.825Z,63.76
2023-02-08T08:13:45.819Z,63.87
2023-02-08T08:14:45.785Z,63.97
2023-02-08T08:15:45.848Z,64.18
2023-02-08T08:16:45.752Z,64.28
2023-02-08T08:17:45.773Z,64.07
2023-02-08T08:18:45.797Z,64.28
2023-02-08T08:19:45.767Z,64.87
2023-02-08T08:20:45.732Z,63.63
2023-02-08T08:21:45.700Z,63.65
2023-02-08T08:22:45.845Z,63.76
2023-02-08T08:23:45.700Z,64.28
2023-02-08T08:24:45.680Z,64.46
2023-02-08T08:25:45.684Z,63.60
2023-02-08T08:26:45.644Z,63.94
2023-02-08T08:27:45.656Z,63.73
2023-02-08T08:28:45.691Z,63.53
2023-02-08T08:29:45.669Z,63.91
2023-02-08T08:30:45.763Z,63.60
2023-02-08T08:31:45.632Z,62.87
2023-02-08T08:32:45.599Z,62.84
2023-02-08T08:33:45.592Z,62.74
2023-02-08T08:34:45.579Z,62.63
2023-02-08T08:35:46.021Z,62.60
2023-02-08T08:36:45.560Z,62.16
2023-02-08T08:37:45.531Z,62.05
2023-02-08T08:38:45.515Z,61.85
2023-02-08T08:39:45.544Z,61.71
2023-02-08T08:40:45.533Z,61.27
2023-02-08T08:41:45.493Z,60.72
2023-02-08T08:42:45.475Z,60.28
2023-02-08T08:43:45.506Z,58.54
2023-02-08T08:44:45.446Z,58.02
2023-02-08T08:45:45.473Z,54.79
2023-02-08T08:46:45.436Z,53.04
2023-02-08T08:47:45.433Z,51.09
2023-02-08T08:48:45.419Z,48.43
2023-02-08T08:49:45.396Z,46.23
2023-02-08T08:50:45.419Z,45.83
2023-02-08T08:51:45.392Z,46.19
2023-02-08T08:52:45.370Z,44.71
2023-02-08T08:53:45.356Z,43.98
2023-02-08T08:54:45.363Z,43.08
2023-02-08T08:55:45.789Z,43.84
2023-02-08T08:56:45.328Z,44.35
2023-02-08T08:57:45.346Z,44.78
2023-02-08T08:58:45.299Z,45.17
2023-02-08T08:59:45.343Z,44.12
2023-02-08T09:00:45.296Z,44.20
2023-02-08T09:01:45.301Z,43.55
2023-02-08T09:02:45.279Z,42.41
2023-02-08T09:03:45.276Z,42.18
2023-02-08T09:04:45.490Z,40.83
2023-02-08T09:05:45.345Z,41.83
2023-02-08T09:06:45.226Z,40.76
2023-02-08T09:07:45.232Z,39.21
2023-02-08T09:08:45.192Z,38.89
2023-02-08T09:09:45.202Z,38.54
2023-02-08T09:10:45.245Z,38.12
2023-02-08T09:11:45.203Z,37.59
2023-02-08T09:12:45.191Z,37.78
2023-02-08T09:13:45.170Z,37.46
2023-02-08T09:14:45.123Z,36.66
2023-02-08T09:15:45.139Z,37.48
2023-02-08T09:16:45.129Z,37.49
2023-02-08T09:17:45.117Z,37.70
2023-02-08T09:18:45.101Z,37.19
2023-02-08T09:19:45.088Z,37.30
2023-02-08T09:20:45.545Z,38.14
2023-02-08T09:21:45.062Z,38.02
2023-02-08T09:22:45.053Z,37.21
2023-02-08T09:23:45.030Z,37.70
2023-02-08T09:24:45.047Z,37.39
2023-02-08T09:25:45.013Z,37.27
2023-02-08T09:26:45.007Z,37.05
2023-02-08T09:27:45.006Z,36.76
2023-02-08T09:28:44.978Z,37.02
2023-02-08T09:29:45.036Z,37.95
2023-02-08T09:30:45.389Z,38.39
2023-02-08T09:31:45.021Z,39.97
2023-02-08T09:32:44.930Z,41.32
2023-02-08T09:33:44.953Z,41.75
2023-02-08T09:34:44.906Z,42.58
2023-02-08T09:35:45.064Z,43.22
2023-02-08T09:36:44.929Z,42.87
2023-02-08T09:37:44.923Z,45.07
2023-02-08T09:38:44.894Z,45.68
2023-02-08T09:39:44.862Z,45.70
2023-02-08T09:40:45.118Z,46.42
2023-02-08T09:41:44.836Z,46.42
2023-02-08T09:42:44.856Z,45.99
2023-02-08T09:43:44.839Z,45.76
2023-02-08T09:44:44.798Z,44.45
2023-02-08T09:45:57.868Z,46.57
2023-02-08T09:46:45.889Z,47.11
2023-02-08T09:47:44.782Z,47.35
2023-02-08T09:48:44.760Z,48.57
2023-02-08T09:49:44.760Z,47.29
2023-02-08T09:50:44.954Z,47.60
2023-02-08T09:51:44.730Z,46.62
2023-02-08T09:52:44.721Z,45.87
2023-02-08T09:53:44.715Z,44.98
2023-02-08T09:54:44.741Z,43.69
2023-02-08T09:55:44.685Z,42.00
2023-02-08T09:56:44.672Z,40.41
2023-02-08T09:57:44.718Z,39.43
2023-02-08T09:58:44.909Z,39.07
2023-02-08T09:59:44.651Z,38.61
2023-02-08T10:00:45.048Z,37.95
2023-02-08T10:01:44.612Z,37.00
2023-02-08T10:02:44.726Z,36.04
2023-02-08T10:03:44.757Z,34.79
2023-02-08T10:04:44.605Z,34.53
2023-02-08T10:05:44.688Z,35.50
2023-02-08T10:06:44.596Z,35.82
2023-02-08T10:07:44.634Z,36.12
2023-02-08T10:08:44.550Z,35.92
2023-02-08T10:09:44.545Z,36.07
2023-02-08T10:10:44.951Z,37.14
2023-02-08T10:11:44.506Z,37.79
2023-02-08T10:12:44.507Z,38.53
2023-02-08T10:13:44.514Z,39.28
2023-02-08T10:14:44.527Z,41.08
2023-02-08T10:15:44.512Z,41.75
2023-02-08T10:16:44.473Z,42.77
2023-02-08T10:17:44.456Z,41.97
2023-02-08T10:18:44.453Z,43.22
2023-02-08T10:19:44.493Z,43.32
2023-02-08T10:20:44.711Z,43.79
2023-02-08T10:21:44.432Z,45.01
2023-02-08T10:22:44.397Z,47.15
2023-02-08T10:23:44.402Z,48.53
2023-02-08T10:24:44.384Z,49.40
2023-02-08T10:25:44.367Z,49.81
2023-02-08T10:26:44.405Z,49.40
2023-02-08T10:27:44.394Z,49.94
2023-02-08T10:28:44.343Z,50.46
2023-02-08T10:29:44.346Z,50.87
2023-02-08T10:30:44.745Z,50.84
2023-02-08T10:31:44.359Z,50.43
2023-02-08T10:32:44.292Z,49.51
2023-02-08T10:33:44.274Z,50.02
2023-02-08T10:34:44.259Z,50.23
2023-02-08T10:35:44.676Z,50.33
2023-02-08T10:36:44.246Z,50.54
2023-02-08T10:37:44.238Z,50.07
2023-02-08T10:38:46.775Z,50.50
2023-02-08T10:39:44.201Z,51.48
2023-02-08T10:40:44.482Z,51.58
2023-02-08T10:41:44.278Z,52.95
2023-02-08T10:42:44.208Z,53.26
2023-02-08T10:43:44.190Z,53.49
2023-02-08T10:44:44.182Z,53.80
2023-02-08T10:45:44.508Z,53.80
2023-02-08T10:46:44.125Z,53.86
2023-02-08T10:47:44.119Z,52.51
2023-02-08T10:48:44.134Z,53.23
2023-02-08T10:49:44.100Z,53.42
2023-02-08T10:50:44.120Z,52.57
2023-02-08T10:51:44.116Z,52.42
2023-02-08T10:52:44.064Z,51.72
2023-02-08T10:53:44.067Z,51.72
2023-02-08T10:54:44.061Z,52.03
2023-02-08T10:55:44.478Z,51.10
2023-02-08T10:56:44.029Z,51.59
2023-02-08T10:57:44.026Z,50.54
2023-02-08T10:58:44.400Z,50.46
2023-02-08T10:59:44.010Z,51.20
2023-02-08T11:00:44.065Z,51.20
2023-02-08T11:01:43.973Z,51.20
2023-02-08T11:02:44.023Z,52.03
2023-02-08T11:03:43.949Z,51.20
2023-02-08T11:04:43.962Z,50.79
2023-02-08T11:05:44.201Z,51.20
2023-02-08T11:06:43.918Z,52.11
2023-02-08T11:07:43.955Z,51.18
2023-02-08T11:08:43.925Z,51.26
2023-02-08T11:09:43.960Z,50.97
2023-02-08T11:10:43.925Z,51.10
2023-02-08T11:11:44.809Z,51.41
2023-02-08T11:12:43.845Z,52.05
2023-02-08T11:13:43.923Z,52.15
2023-02-08T11:14:47.442Z,52.26
2023-02-08T11:15:44.321Z,52.39
2023-02-08T11:16:43.856Z,52.83
2023-02-08T11:17:43.834Z,53.44
2023-02-08T11:18:43.792Z,53.65
2023-02-08T11:19:43.769Z,53.65
2023-02-08T11:20:43.800Z,53.44
2023-02-08T11:21:43.781Z,53.55
2023-02-08T11:22:43.760Z,53.42
2023-02-08T11:23:43.734Z,53.23
2023-02-08T11:24:43.755Z,53.99
2023-02-08T11:25:44.067Z,54.35
2023-02-08T11:26:43.729Z,55.07
2023-02-08T11:27:43.690Z,54.97
2023-02-08T11:28:43.694Z,55.07
2023-02-08T11:29:43.679Z,54.99
2023-02-08T11:30:43.751Z,56.57
2023-02-08T11:31:43.690Z,56.49
2023-02-08T11:32:43.641Z,57.43
2023-02-08T11:33:43.629Z,56.91
2023-02-08T11:34:43.621Z,57.43
2023-02-08T11:35:43.928Z,56.47
2023-02-08T11:36:43.630Z,56.68
2023-02-08T11:37:43.577Z,56.54
2023-02-08T11:38:43.573Z,56.31
2023-02-08T11:39:43.577Z,56.10
2023-02-08T11:40:43.554Z,54.97
2023-02-08T11:41:43.567Z,55.05
2023-02-08T11:42:52.869Z,55.05
2023-02-08T11:43:43.515Z,55.02
2023-02-08T11:44:43.523Z,55.22
2023-02-08T11:45:43.815Z,54.99
2023-02-08T11:46:43.496Z,54.68
2023-02-08T11:47:43.499Z,54.68
2023-02-08T11:48:43.468Z,54.61
2023-02-08T11:49:43.459Z,54.79
2023-02-08T11:50:43.456Z,54.27
2023-02-08T11:51:43.434Z,53.96
2023-02-08T11:52:43.457Z,54.91
2023-02-08T11:53:43.401Z,54.48
2023-02-08T11:54:43.410Z,54.48
2023-02-08T11:55:43.727Z,54.48
2023-02-08T11:56:43.377Z,53.86
2023-02-08T11:57:43.419Z,54.48
2023-02-08T11:58:43.345Z,54.89
2023-02-08T11:59:43.345Z,54.45
2023-02-08T12:00:43.341Z,53.94
2023-02-08T12:01:43.346Z,53.94
2023-02-08T12:02:43.366Z,54.27
2023-02-08T12:03:43.355Z,54.79
2023-02-08T12:04:43.287Z,54.68
2023-02-08T12:05:43.607Z,55.10
2023-02-08T12:06:43.270Z,54.27
2023-02-08T12:07:43.314Z,54.30
2023-02-08T12:08:43.269Z,54.91
2023-02-08T12:09:43.266Z,54.91
2023-02-08T12:10:43.222Z,55.22
2023-02-08T12:11:43.226Z,55.12
2023-02-08T12:12:43.201Z,54.91
2023-02-08T12:13:43.236Z,55.12
2023-02-08T12:14:43.188Z,54.71
2023-02-08T12:15:57.501Z,55.22
2023-02-08T12:16:44.169Z,55.22
2023-02-08T12:17:43.146Z,55.87
2023-02-08T12:18:43.150Z,56.08
2023-02-08T12:19:43.142Z,56.10
2023-02-08T12:20:43.121Z,56.41
2023-02-08T12:21:43.136Z,56.83
2023-02-08T12:22:43.118Z,56.85
2023-02-08T12:23:43.090Z,57.17
2023-02-08T12:24:43.107Z,57.48
2023-02-08T12:25:43.342Z,57.48
2023-02-08T12:26:43.050Z,57.06
2023-02-08T12:27:43.043Z,57.37
2023-02-08T12:28:43.035Z,56.96
2023-02-08T12:29:47.870Z,57.37
2023-02-08T12:30:44.187Z,57.20
2023-02-08T12:31:43.075Z,57.37
2023-02-08T12:32:43.012Z,57.48
2023-02-08T12:33:43.015Z,57.58
2023-02-08T12:34:43.012Z,57.06
2023-02-08T12:35:54.026Z,57.17
2023-02-08T12:36:43.955Z,57.56
2023-02-08T12:37:42.949Z,57.14
2023-02-08T12:38:42.920Z,56.73
2023-02-08T12:39:42.946Z,57.24
2023-02-08T12:40:42.904Z,57.04
2023-02-08T12:41:42.930Z,57.04
2023-02-08T12:42:42.906Z,56.70
2023-02-08T12:43:42.880Z,56.60
2023-02-08T12:44:42.896Z,56.73
2023-02-08T12:45:43.098Z,57.04
2023-02-08T12:46:42.836Z,57.12
2023-02-08T12:47:51.736Z,57.12
2023-02-08T12:48:43.818Z,56.98
2023-02-08T12:49:42.796Z,57.09
2023-02-08T12:50:42.829Z,56.44
2023-02-08T12:51:42.787Z,55.93
2023-02-08T12:52:42.812Z,54.86